sensor_id;sensor_type;location;lat;lon;timestamp;pressure;altitude;pressure_sealevel;temperature
73685;BMP280;61985;51.070;14.064;2022-12-07T00:01:15;98379.63;;;1.08
73685;BMP280;61985;51.070;14.064;2022-12-07T00:03:44;98377.00;;;1.12
73685;BMP280;61985;51.070;14.064;2022-12-07T00:06:12;98373.63;;;1.15
73685;BMP280;61985;51.070;14.064;2022-12-07T00:08:38;98373.25;;;1.13
73685;BMP280;61985;51.070;14.064;2022-12-07T00:11:06;98375.88;;;1.13
73685;BMP280;61985;51.070;14.064;2022-12-07T00:13:34;98374.00;;;1.14
73685;BMP280;61985;51.070;14.064;2022-12-07T00:16:01;98380.06;;;1.14
73685;BMP280;61985;51.070;14.064;2022-12-07T00:18:26;98369.78;;;1.13
73685;BMP280;61985;51.070;14.064;2022-12-07T00:20:52;98366.44;;;1.16
73685;BMP280;61985;51.070;14.064;2022-12-07T00:23:17;98372.47;;;1.13
73685;BMP280;61985;51.070;14.064;2022-12-07T00:25:42;98380.50;;;1.20
73685;BMP280;61985;51.070;14.064;2022-12-07T00:28:08;98369.88;;;1.16
73685;BMP280;61985;51.070;14.064;2022-12-07T00:30:35;98366.44;;;1.16
73685;BMP280;61985;51.070;14.064;2022-12-07T00:33:01;98375.94;;;1.17
73685;BMP280;61985;51.070;14.064;2022-12-07T00:35:26;98369.50;;;1.18
73685;BMP280;61985;51.070;14.064;2022-12-07T00:37:51;98371.69;;;1.12
73685;BMP280;61985;51.070;14.064;2022-12-07T00:40:17;98373.25;;;1.13
73685;BMP280;61985;51.070;14.064;2022-12-07T00:42:42;98367.13;;;1.09
73685;BMP280;61985;51.070;14.064;2022-12-07T00:45:08;98366.34;;;1.08
73685;BMP280;61985;51.070;14.064;2022-12-07T00:47:33;98364.06;;;1.07
73685;BMP280;61985;51.070;14.064;2022-12-07T00:49:59;98372.38;;;1.05
73685;BMP280;61985;51.070;14.064;2022-12-07T00:52:25;98361.34;;;1.03
73685;BMP280;61985;51.070;14.064;2022-12-07T00:54:50;98364.00;;;1.03
73685;BMP280;61985;51.070;14.064;2022-12-07T00:57:15;98362.88;;;1.04
73685;BMP280;61985;51.070;14.064;2022-12-07T00:59:41;98362.84;;;1.01
73685;BMP280;61985;51.070;14.064;2022-12-07T01:02:06;98363.97;;;1.00
73685;BMP280;61985;51.070;14.064;2022-12-07T01:04:33;98355.25;;;0.99
73685;BMP280;61985;51.070;14.064;2022-12-07T01:06:59;98365.91;;;1.03
73685;BMP280;61985;51.070;14.064;2022-12-07T01:09:24;98364.72;;;1.00
73685;BMP280;61985;51.070;14.064;2022-12-07T01:11:50;98371.16;;;0.99
73685;BMP280;61985;51.070;14.064;2022-12-07T01:14:15;98366.97;;;0.98
73685;BMP280;61985;51.070;14.064;2022-12-07T01:16:40;98368.53;;;0.99
73685;BMP280;61985;51.070;14.064;2022-12-07T01:19:06;98365.88;;;0.99
73685;BMP280;61985;51.070;14.064;2022-12-07T01:21:33;98370.00;;;0.97
73685;BMP280;61985;51.070;14.064;2022-12-07T01:24:01;98369.25;;;0.96
73685;BMP280;61985;51.070;14.064;2022-12-07T01:26:27;98371.88;;;0.96
73685;BMP280;61985;51.070;14.064;2022-12-07T01:28:53;98369.63;;;0.98
73685;BMP280;61985;51.070;14.064;2022-12-07T01:31:21;98369.25;;;0.96
73685;BMP280;61985;51.070;14.064;2022-12-07T01:33:50;98367.34;;;0.97
73685;BMP280;61985;51.070;14.064;2022-12-07T01:36:24;98366.22;;;0.98
73685;BMP280;61985;51.070;14.064;2022-12-07T01:38:53;98358.63;;;0.96
73685;BMP280;61985;51.070;14.064;2022-12-07T01:41:22;98360.13;;;0.97
73685;BMP280;61985;51.070;14.064;2022-12-07T01:44:14;98364.00;;;1.03
73685;BMP280;61985;51.070;14.064;2022-12-07T01:46:42;98359.41;;;1.00
73685;BMP280;61985;51.070;14.064;2022-12-07T01:49:16;98352.59;;;0.99
73685;BMP280;61985;51.070;14.064;2022-12-07T01:51:43;98360.13;;;0.97
73685;BMP280;61985;51.070;14.064;2022-12-07T01:54:11;98360.91;;;0.98
73685;BMP280;61985;51.070;14.064;2022-12-07T01:56:38;98365.88;;;0.99
73685;BMP280;61985;51.070;14.064;2022-12-07T01:59:05;98367.38;;;1.00
73685;BMP280;61985;51.070;14.064;2022-12-07T02:01:30;98360.56;;;0.99
73685;BMP280;61985;51.070;14.064;2022-12-07T02:03:57;98357.91;;;0.99
73685;BMP280;61985;51.070;14.064;2022-12-07T02:06:25;98360.13;;;0.97
73685;BMP280;61985;51.070;14.064;2022-12-07T02:08:50;98357.47;;;0.97
73685;BMP280;61985;51.070;14.064;2022-12-07T02:11:17;98356.00;;;1.00
73685;BMP280;61985;51.070;14.064;2022-12-07T02:13:43;98350.69;;;1.00
73685;BMP280;61985;51.070;14.064;2022-12-07T02:21:45;98360.56;;;0.99
73685;BMP280;61985;51.070;14.064;2022-12-07T02:25:18;98345.03;;;1.01
73685;BMP280;61985;51.070;14.064;2022-12-07T02:30:20;98338.56;;;0.99
73685;BMP280;61985;51.070;14.064;2022-12-07T02:32:59;98342.75;;;1.00
73685;BMP280;61985;51.070;14.064;2022-12-07T02:35:33;98343.50;;;1.00
73685;BMP280;61985;51.070;14.064;2022-12-07T02:38:16;98335.19;;;1.02
73685;BMP280;61985;51.070;14.064;2022-12-07T02:40:50;98345.78;;;1.02
73685;BMP280;61985;51.070;14.064;2022-12-07T02:43:22;98342.78;;;1.03
73685;BMP280;61985;51.070;14.064;2022-12-07T02:45:50;98337.06;;;1.01
73685;BMP280;61985;51.070;14.064;2022-12-07T02:48:17;98335.19;;;1.02
73685;BMP280;61985;51.070;14.064;2022-12-07T02:50:51;98335.19;;;1.02
73685;BMP280;61985;51.070;14.064;2022-12-07T02:55:55;98326.06;;;0.99
73685;BMP280;61985;51.070;14.064;2022-12-07T03:01:15;98323.78;;;0.98
73685;BMP280;61985;51.070;14.064;2022-12-07T03:03:47;98321.41;;;0.93
73685;BMP280;61985;51.070;14.064;2022-12-07T03:06:20;98318.28;;;0.83
73685;BMP280;61985;51.070;14.064;2022-12-07T03:11:29;98320.41;;;0.70
73685;BMP280;61985;51.070;14.064;2022-12-07T03:14:08;98316.53;;;0.64
73685;BMP280;61985;51.070;14.064;2022-12-07T03:16:59;98312.66;;;0.58
73685;BMP280;61985;51.070;14.064;2022-12-07T03:19:26;98317.94;;;0.54
73685;BMP280;61985;51.070;14.064;2022-12-07T03:22:05;98307.25;;;0.51
73685;BMP280;61985;51.070;14.064;2022-12-07T03:24:45;98304.22;;;0.49
73685;BMP280;61985;51.070;14.064;2022-12-07T03:27:16;98309.47;;;0.45
73685;BMP280;61985;51.070;14.064;2022-12-07T03:30:04;98308.34;;;0.46
73685;BMP280;61985;51.070;14.064;2022-12-07T03:32:42;98302.66;;;0.48
73685;BMP280;61985;51.070;14.064;2022-12-07T03:35:13;98292.41;;;0.46
73685;BMP280;61985;51.070;14.064;2022-12-07T03:40:27;98289.69;;;0.39
73685;BMP280;61985;51.070;14.064;2022-12-07T03:42:55;98292.72;;;0.38
73685;BMP280;61985;51.070;14.064;2022-12-07T03:45:24;98302.16;;;0.39
73685;BMP280;61985;51.070;14.064;2022-12-07T03:50:48;98290.41;;;0.36
73685;BMP280;61985;51.070;14.064;2022-12-07T03:53:23;98296.44;;;0.33
73685;BMP280;61985;51.070;14.064;2022-12-07T03:55:50;98292.63;;;0.30
73685;BMP280;61985;51.070;14.064;2022-12-07T03:58:19;98288.03;;;0.27
73685;BMP280;61985;51.070;14.064;2022-12-07T04:00:46;98294.53;;;0.30
73685;BMP280;61985;51.070;14.064;2022-12-07T04:03:12;98300.56;;;0.30
73685;BMP280;61985;51.070;14.064;2022-12-07T04:05:38;98296.81;;;0.31
73685;BMP280;61985;51.070;14.064;2022-12-07T04:08:04;98283.13;;;0.29
73685;BMP280;61985;51.070;14.064;2022-12-07T04:10:30;98279.78;;;0.32
73685;BMP280;61985;51.070;14.064;2022-12-07T04:12:55;98276.72;;;0.30
73685;BMP280;61985;51.070;14.064;2022-12-07T04:15:21;98282.03;;;0.30
73685;BMP280;61985;51.070;14.064;2022-12-07T04:17:46;98278.63;;;0.30
73685;BMP280;61985;51.070;14.064;2022-12-07T04:20:12;98275.63;;;0.31
73685;BMP280;61985;51.070;14.064;2022-12-07T04:22:37;98271.78;;;0.29
73685;BMP280;61985;51.070;14.064;2022-12-07T04:25:03;98268.03;;;0.30
73685;BMP280;61985;51.070;14.064;2022-12-07T04:27:29;98261.53;;;0.27
73685;BMP280;61985;51.070;14.064;2022-12-07T04:29:54;98264.59;;;0.29
73685;BMP280;61985;51.070;14.064;2022-12-07T04:32:21;98272.56;;;0.33
73685;BMP280;61985;51.070;14.064;2022-12-07T04:34:46;98261.63;;;0.34
73685;BMP280;61985;51.070;14.064;2022-12-07T04:37:12;98257.44;;;0.33
73685;BMP280;61985;51.070;14.064;2022-12-07T04:39:37;98250.22;;;0.34
73685;BMP280;61985;51.070;14.064;2022-12-07T04:42:03;98255.16;;;0.32
73685;BMP280;61985;51.070;14.064;2022-12-07T04:44:29;98251.34;;;0.29
73685;BMP280;61985;51.070;14.064;2022-12-07T04:46:54;98243.00;;;0.27
73685;BMP280;61985;51.070;14.064;2022-12-07T04:49:20;98244.09;;;0.26
73685;BMP280;61985;51.070;14.064;2022-12-07T04:51:46;98238.44;;;0.28
73685;BMP280;61985;51.070;14.064;2022-12-07T04:54:12;98238.00;;;0.22
73685;BMP280;61985;51.070;14.064;2022-12-07T04:56:38;98245.19;;;0.22
73685;BMP280;61985;51.070;14.064;2022-12-07T04:59:04;98238.75;;;0.23
73685;BMP280;61985;51.070;14.064;2022-12-07T05:01:30;98235.03;;;0.27
73685;BMP280;61985;51.070;14.064;2022-12-07T05:03:56;98227.09;;;0.27
73685;BMP280;61985;51.070;14.064;2022-12-07T05:06:22;98227.16;;;0.34
73685;BMP280;61985;51.070;14.064;2022-12-07T05:08:47;98221.47;;;0.32
73685;BMP280;61985;51.070;14.064;2022-12-07T05:11:13;98225.63;;;0.33
73685;BMP280;61985;51.070;14.064;2022-12-07T05:13:57;98236.63;;;0.35
73685;BMP280;61985;51.070;14.064;2022-12-07T05:16:22;98221.44;;;0.29
73685;BMP280;61985;51.070;14.064;2022-12-07T05:18:48;98224.09;;;0.29
73685;BMP280;61985;51.070;14.064;2022-12-07T05:21:13;98217.59;;;0.26
73685;BMP280;61985;51.070;14.064;2022-12-07T05:23:38;98218.31;;;0.23
73685;BMP280;61985;51.070;14.064;2022-12-07T05:26:04;98222.47;;;0.21
73685;BMP280;61985;51.070;14.064;2022-12-07T05:28:29;98218.25;;;0.16
73685;BMP280;61985;51.070;14.064;2022-12-07T05:30:55;98217.06;;;0.13
73685;BMP280;61985;51.070;14.064;2022-12-07T05:33:20;98213.66;;;0.13
73685;BMP280;61985;51.070;14.064;2022-12-07T05:35:45;98217.81;;;0.14
73685;BMP280;61985;51.070;14.064;2022-12-07T05:38:11;98213.66;;;0.13
73685;BMP280;61985;51.070;14.064;2022-12-07T05:40:37;98210.69;;;0.18
73685;BMP280;61985;51.070;14.064;2022-12-07T05:43:02;98219.81;;;0.21
73685;BMP280;61985;51.070;14.064;2022-12-07T05:45:27;98213.03;;;0.23
73685;BMP280;61985;51.070;14.064;2022-12-07T05:47:53;98207.00;;;0.26
73685;BMP280;61985;51.070;14.064;2022-12-07T05:50:18;98205.50;;;0.25
73685;BMP280;61985;51.070;14.064;2022-12-07T05:52:44;98210.06;;;0.28
73685;BMP280;61985;51.070;14.064;2022-12-07T05:55:09;98193.41;;;0.28
73685;BMP280;61985;51.070;14.064;2022-12-07T05:57:34;98198.75;;;0.31
73685;BMP280;61985;51.070;14.064;2022-12-07T06:00:00;98195.72;;;0.33
73685;BMP280;61985;51.070;14.064;2022-12-07T06:02:25;98190.06;;;0.34
73685;BMP280;61985;51.070;14.064;2022-12-07T06:04:51;98183.63;;;0.35
73685;BMP280;61985;51.070;14.064;2022-12-07T06:07:16;98179.81;;;0.33
73685;BMP280;61985;51.070;14.064;2022-12-07T06:09:42;98192.00;;;0.38
73685;BMP280;61985;51.070;14.064;2022-12-07T06:12:10;98195.41;;;0.38
73685;BMP280;61985;51.070;14.064;2022-12-07T06:14:54;98189.72;;;0.40
73685;BMP280;61985;51.070;14.064;2022-12-07T06:17:20;98188.63;;;0.41
73685;BMP280;61985;51.070;14.064;2022-12-07T06:19:45;98185.19;;;0.40
73685;BMP280;61985;51.070;14.064;2022-12-07T06:22:11;98182.19;;;0.42
73685;BMP280;61985;51.070;14.064;2022-12-07T06:24:37;98186.75;;;0.45
73685;BMP280;61985;51.070;14.064;2022-12-07T06:27:03;98177.28;;;0.44
73685;BMP280;61985;51.070;14.064;2022-12-07T06:29:29;98173.94;;;0.47
73685;BMP280;61985;51.070;14.064;2022-12-07T06:31:55;98169.75;;;0.46
73685;BMP280;61985;51.070;14.064;2022-12-07T06:34:21;98171.28;;;0.47
73685;BMP280;61985;51.070;14.064;2022-12-07T06:36:50;98172.78;;;0.48
73685;BMP280;61985;51.070;14.064;2022-12-07T06:39:22;98170.56;;;0.50
73685;BMP280;61985;51.070;14.064;2022-12-07T06:41:48;98177.78;;;0.53
73685;BMP280;61985;51.070;14.064;2022-12-07T06:44:13;98167.13;;;0.49
73685;BMP280;61985;51.070;14.064;2022-12-07T06:46:39;98167.13;;;0.49
73685;BMP280;61985;51.070;14.064;2022-12-07T06:49:05;98169.41;;;0.51
73685;BMP280;61985;51.070;14.064;2022-12-07T06:51:31;98174.78;;;0.54
73685;BMP280;61985;51.070;14.064;2022-12-07T06:53:57;98175.53;;;0.55
73685;BMP280;61985;51.070;14.064;2022-12-07T06:56:22;98174.00;;;0.54
73685;BMP280;61985;51.070;14.064;2022-12-07T06:58:48;98169.50;;;0.58
73685;BMP280;61985;51.070;14.064;2022-12-07T07:01:21;98168.38;;;0.59
73685;BMP280;61985;51.070;14.064;2022-12-07T07:03:47;98169.88;;;0.60
73685;BMP280;61985;51.070;14.064;2022-12-07T07:06:13;98175.19;;;0.60
73685;BMP280;61985;51.070;14.064;2022-12-07T07:08:52;98173.34;;;0.64
73685;BMP280;61985;51.070;14.064;2022-12-07T07:11:18;98174.47;;;0.63
73685;BMP280;61985;51.070;14.064;2022-12-07T07:13:44;98170.69;;;0.64
73685;BMP280;61985;51.070;14.064;2022-12-07T07:16:10;98168.03;;;0.64
73685;BMP280;61985;51.070;14.064;2022-12-07T07:18:36;98169.59;;;0.69
73685;BMP280;61985;51.070;14.064;2022-12-07T07:21:01;98175.31;;;0.71
73685;BMP280;61985;51.070;14.064;2022-12-07T07:23:27;98175.72;;;0.73
73685;BMP280;61985;51.070;14.064;2022-12-07T07:25:55;98165.03;;;0.66
73685;BMP280;61985;51.070;14.064;2022-12-07T07:28:21;98174.16;;;0.68
73685;BMP280;61985;51.070;14.064;2022-12-07T07:30:46;98170.69;;;0.64
73685;BMP280;61985;51.070;14.064;2022-12-07T07:33:12;98174.47;;;0.63
73685;BMP280;61985;51.070;14.064;2022-12-07T07:41:35;98187.00;;;0.66
73685;BMP280;61985;51.070;14.064;2022-12-07T07:44:00;98176.72;;;0.61
73685;BMP280;61985;51.070;14.064;2022-12-07T07:46:25;98191.09;;;0.60
73685;BMP280;61985;51.070;14.064;2022-12-07T07:48:51;98179.38;;;0.61
73685;BMP280;61985;51.070;14.064;2022-12-07T07:51:16;98173.25;;;0.57
73685;BMP280;61985;51.070;14.064;2022-12-07T07:53:41;98191.09;;;0.60
73685;BMP280;61985;51.070;14.064;2022-12-07T07:56:07;98186.97;;;0.63
73685;BMP280;61985;51.070;14.064;2022-12-07T07:58:32;98194.97;;;0.66
73685;BMP280;61985;51.070;14.064;2022-12-07T08:01:03;98195.00;;;0.70
73685;BMP280;61985;51.070;14.064;2022-12-07T08:03:29;98186.59;;;0.64
73685;BMP280;61985;51.070;14.064;2022-12-07T08:05:54;98192.28;;;0.63
73685;BMP280;61985;51.070;14.064;2022-12-07T08:08:20;98200.63;;;0.65
73685;BMP280;61985;51.070;14.064;2022-12-07T08:10:45;98190.81;;;0.69
73685;BMP280;61985;51.070;14.064;2022-12-07T08:13:10;98189.38;;;0.75
73685;BMP280;61985;51.070;14.064;2022-12-07T08:15:37;98200.00;;;0.79
73685;BMP280;61985;51.070;14.064;2022-12-07T08:18:03;98197.00;;;0.80
73685;BMP280;61985;51.070;14.064;2022-12-07T08:20:32;98189.13;;;0.87
73685;BMP280;61985;51.070;14.064;2022-12-07T08:22:58;98195.53;;;0.86
73685;BMP280;61985;51.070;14.064;2022-12-07T08:25:24;98188.78;;;0.93
73685;BMP280;61985;51.070;14.064;2022-12-07T08:27:50;98192.25;;;0.97
73685;BMP280;61985;51.070;14.064;2022-12-07T08:30:16;98188.13;;;1.03
73685;BMP280;61985;51.070;14.064;2022-12-07T08:32:44;98184.38;;;1.04
73685;BMP280;61985;51.070;14.064;2022-12-07T08:35:09;98186.69;;;1.09
73685;BMP280;61985;51.070;14.064;2022-12-07T08:37:35;98183.72;;;1.18
73685;BMP280;61985;51.070;14.064;2022-12-07T08:40:00;98190.56;;;1.19
73685;BMP280;61985;51.070;14.064;2022-12-07T08:42:26;98199.31;;;1.23
73685;BMP280;61985;51.070;14.064;2022-12-07T08:44:55;98196.69;;;1.26
73685;BMP280;61985;51.070;14.064;2022-12-07T08:47:22;98184.56;;;1.29
73685;BMP280;61985;51.070;14.064;2022-12-07T08:49:48;98196.38;;;1.32
73685;BMP280;61985;51.070;14.064;2022-12-07T08:52:15;98189.91;;;1.36
73685;BMP280;61985;51.070;14.064;2022-12-07T08:54:40;98199.78;;;1.39
73685;BMP280;61985;51.070;14.064;2022-12-07T08:57:06;98193.00;;;1.45
73685;BMP280;61985;51.070;14.064;2022-12-07T08:59:34;98197.59;;;1.49
73685;BMP280;61985;51.070;14.064;2022-12-07T09:02:00;98191.97;;;1.57
73685;BMP280;61985;51.070;14.064;2022-12-07T09:04:25;98200.31;;;1.59
73685;BMP280;61985;51.070;14.064;2022-12-07T09:06:51;98195.41;;;1.61
73685;BMP280;61985;51.070;14.064;2022-12-07T09:09:17;98191.63;;;1.62
73685;BMP280;61985;51.070;14.064;2022-12-07T09:11:42;98198.09;;;1.65
73685;BMP280;61985;51.070;14.064;2022-12-07T09:14:09;98190.88;;;1.66
73685;BMP280;61985;51.070;14.064;2022-12-07T09:16:34;98193.22;;;1.71
73685;BMP280;61985;51.070;14.064;2022-12-07T09:19:00;98193.97;;;1.71
73685;BMP280;61985;51.070;14.064;2022-12-07T09:21:25;98200.81;;;1.76
73685;BMP280;61985;51.070;14.064;2022-12-07T09:23:51;98202.38;;;1.80
73685;BMP280;61985;51.070;14.064;2022-12-07T09:26:16;98204.66;;;1.82
73685;BMP280;61985;51.070;14.064;2022-12-07T09:28:41;98193.66;;;1.84
73685;BMP280;61985;51.070;14.064;2022-12-07T09:31:07;98191.38;;;1.86
73685;BMP280;61985;51.070;14.064;2022-12-07T09:33:32;98203.19;;;1.88
73685;BMP280;61985;51.070;14.064;2022-12-07T09:35:58;98190.28;;;1.87
73685;BMP280;61985;51.070;14.064;2022-12-07T09:38:23;98188.38;;;1.87
73685;BMP280;61985;51.070;14.064;2022-12-07T09:40:51;98188.00;;;1.92
73685;BMP280;61985;51.070;14.064;2022-12-07T09:43:20;98187.66;;;1.97
73685;BMP280;61985;51.070;14.064;2022-12-07T09:45:48;98180.06;;;1.99
73685;BMP280;61985;51.070;14.064;2022-12-07T09:48:20;98183.88;;;2.06
73685;BMP280;61985;51.070;14.064;2022-12-07T09:50:47;98182.78;;;2.10
73685;BMP280;61985;51.070;14.064;2022-12-07T09:53:28;98191.16;;;2.16
73685;BMP280;61985;51.070;14.064;2022-12-07T09:55:54;98186.97;;;2.15
73685;BMP280;61985;51.070;14.064;2022-12-07T09:58:25;98196.50;;;2.20
73685;BMP280;61985;51.070;14.064;2022-12-07T10:01:09;98191.97;;;2.24
73685;BMP280;61985;51.070;14.064;2022-12-07T10:03:38;98186.66;;;2.24
73685;BMP280;61985;51.070;14.064;2022-12-07T10:06:05;98185.91;;;2.23
73685;BMP280;61985;51.070;14.064;2022-12-07T10:08:31;98189.31;;;2.27
73685;BMP280;61985;51.070;14.064;2022-12-07T10:10:57;98184.03;;;2.31
73685;BMP280;61985;51.070;14.064;2022-12-07T10:13:37;98166.19;;;2.42
73685;BMP280;61985;51.070;14.064;2022-12-07T10:16:03;98176.09;;;2.52
73685;BMP280;61985;51.070;14.064;2022-12-07T10:18:35;98163.59;;;2.64
73685;BMP280;61985;51.070;14.064;2022-12-07T10:21:05;98161.31;;;2.73
73685;BMP280;61985;51.070;14.064;2022-12-07T10:23:33;98161.28;;;2.69
73685;BMP280;61985;51.070;14.064;2022-12-07T10:25:58;98171.94;;;2.73
73685;BMP280;61985;51.070;14.064;2022-12-07T10:28:33;98171.53;;;2.71
73685;BMP280;61985;51.070;14.064;2022-12-07T10:31:17;98177.28;;;2.73
73685;BMP280;61985;51.070;14.064;2022-12-07T10:33:51;98172.31;;;2.75
73685;BMP280;61985;51.070;14.064;2022-12-07T10:39:02;98163.25;;;2.90
73685;BMP280;61985;51.070;14.064;2022-12-07T10:41:28;98164.72;;;2.99
73685;BMP280;61985;51.070;14.064;2022-12-07T10:43:56;98159.44;;;3.13
73685;BMP280;61985;51.070;14.064;2022-12-07T12:09:12;98129.97;;;2.02
73685;BMP280;61985;51.070;14.064;2022-12-07T12:20:21;98113.63;;;1.96
73685;BMP280;61985;51.070;14.064;2022-12-07T12:23:05;98110.59;;;1.97
73685;BMP280;61985;51.070;14.064;2022-12-07T12:26:03;98108.72;;;2.05
73685;BMP280;61985;51.070;14.064;2022-12-07T12:29:36;98113.28;;;2.08
73685;BMP280;61985;51.070;14.064;2022-12-07T12:31:40;98109.50;;;2.09
73685;BMP280;61985;51.070;14.064;2022-12-07T12:34:39;98109.13;;;2.11
73685;BMP280;61985;51.070;14.064;2022-12-07T12:42:44;98109.88;;;2.08
73685;BMP280;61985;51.070;14.064;2022-12-07T12:47:52;98106.09;;;2.12
73685;BMP280;61985;51.070;14.064;2022-12-07T12:50:21;98099.25;;;2.15
73685;BMP280;61985;51.070;14.064;2022-12-07T12:52:53;98103.81;;;2.14
73685;BMP280;61985;51.070;14.064;2022-12-07T12:55:29;98103.81;;;2.14
73685;BMP280;61985;51.070;14.064;2022-12-07T13:01:30;98105.41;;;2.30
73685;BMP280;61985;51.070;14.064;2022-12-07T13:03:34;98106.16;;;2.41
73685;BMP280;61985;51.070;14.064;2022-12-07T13:08:53;98095.53;;;2.52
73685;BMP280;61985;51.070;14.064;2022-12-07T13:11:28;98106.97;;;2.52
73685;BMP280;61985;51.070;14.064;2022-12-07T13:16:58;98089.84;;;2.50
73685;BMP280;61985;51.070;14.064;2022-12-07T13:19:53;98102.41;;;2.53
73685;BMP280;61985;51.070;14.064;2022-12-07T13:24:59;98087.94;;;2.47
73685;BMP280;61985;51.070;14.064;2022-12-07T13:27:28;98090.59;;;2.43
73685;BMP280;61985;51.070;14.064;2022-12-07T13:29:56;98075.03;;;2.45
73685;BMP280;61985;51.070;14.064;2022-12-07T13:32:27;98084.91;;;2.45
73685;BMP280;61985;51.070;14.064;2022-12-07T13:34:53;98081.09;;;2.42
73685;BMP280;61985;51.070;14.064;2022-12-07T13:37:26;98088.66;;;2.36
73685;BMP280;61985;51.070;14.064;2022-12-07T13:39:55;98078.78;;;2.19
73685;BMP280;61985;51.070;14.064;2022-12-07T13:44:52;98099.56;;;1.92
73685;BMP280;61985;51.070;14.064;2022-12-07T13:47:41;98097.56;;;1.67
73685;BMP280;61985;51.070;14.064;2022-12-07T13:50:29;98106.97;;;1.54
73685;BMP280;61985;51.070;14.064;2022-12-07T13:52:57;98114.09;;;1.35
73685;BMP280;61985;51.070;14.064;2022-12-07T13:55:22;98118.22;;;1.29
73685;BMP280;61985;51.070;14.064;2022-12-07T13:57:51;98122.31;;;1.19
73685;BMP280;61985;51.070;14.064;2022-12-07T14:00:25;98109.03;;;1.16
73685;BMP280;61985;51.070;14.064;2022-12-07T14:05:31;98114.81;;;1.29
73685;BMP280;61985;51.070;14.064;2022-12-07T14:10:27;98117.47;;;1.36
73685;BMP280;61985;51.070;14.064;2022-12-07T14:12:54;98111.03;;;1.37
73685;BMP280;61985;51.070;14.064;2022-12-07T14:15:22;98102.34;;;1.43
73685;BMP280;61985;51.070;14.064;2022-12-07T14:17:53;98110.31;;;1.43
73685;BMP280;61985;51.070;14.064;2022-12-07T14:20:39;98108.06;;;1.45
73685;BMP280;61985;51.070;14.064;2022-12-07T14:23:19;98106.94;;;1.50
73685;BMP280;61985;51.070;14.064;2022-12-07T14:25:51;98117.19;;;1.52
73685;BMP280;61985;51.070;14.064;2022-12-07T14:28:28;98115.34;;;1.56
73685;BMP280;61985;51.070;14.064;2022-12-07T14:30:54;98112.69;;;1.56
73685;BMP280;61985;51.070;14.064;2022-12-07T14:33:20;98117.59;;;1.54
73685;BMP280;61985;51.070;14.064;2022-12-07T14:35:46;98112.28;;;1.54
73685;BMP280;61985;51.070;14.064;2022-12-07T14:38:12;98112.69;;;1.56
73685;BMP280;61985;51.070;14.064;2022-12-07T14:40:38;98114.22;;;1.57
73685;BMP280;61985;51.070;14.064;2022-12-07T14:43:12;98103.97;;;1.55
73685;BMP280;61985;51.070;14.064;2022-12-07T14:45:38;98106.56;;;1.52
73685;BMP280;61985;51.070;14.064;2022-12-07T14:48:05;98108.09;;;1.49
73685;BMP280;61985;51.070;14.064;2022-12-07T14:50:37;98106.94;;;1.50
73685;BMP280;61985;51.070;14.064;2022-12-07T14:53:10;98097.47;;;1.49
73685;BMP280;61985;51.070;14.064;2022-12-07T14:55:37;98097.84;;;1.51
73685;BMP280;61985;51.070;14.064;2022-12-07T14:58:02;98092.94;;;1.53
73685;BMP280;61985;51.070;14.064;2022-12-07T15:00:28;98105.06;;;1.54
73685;BMP280;61985;51.070;14.064;2022-12-07T15:02:54;98105.06;;;1.54
73685;BMP280;61985;51.070;14.064;2022-12-07T15:05:20;98100.91;;;1.53
73685;BMP280;61985;51.070;14.064;2022-12-07T15:07:47;98101.31;;;1.55
73685;BMP280;61985;51.070;14.064;2022-12-07T15:12:41;98095.25;;;1.58
73685;BMP280;61985;51.070;14.064;2022-12-07T15:15:07;98095.25;;;1.58
73685;BMP280;61985;51.070;14.064;2022-12-07T15:17:32;98100.56;;;1.58
73685;BMP280;61985;51.070;14.064;2022-12-07T15:19:58;98095.25;;;1.58
73685;BMP280;61985;51.070;14.064;2022-12-07T15:22:23;98088.41;;;1.61
73685;BMP280;61985;51.070;14.064;2022-12-07T15:24:48;98087.28;;;1.58
73685;BMP280;61985;51.070;14.064;2022-12-07T15:27:14;98083.09;;;1.61
73685;BMP280;61985;51.070;14.064;2022-12-07T15:29:39;98078.16;;;1.59
73685;BMP280;61985;51.070;14.064;2022-12-07T15:32:05;98065.25;;;1.58
73685;BMP280;61985;51.070;14.064;2022-12-07T15:34:30;98076.28;;;1.60
73685;BMP280;61985;51.070;14.064;2022-12-07T15:36:57;98089.94;;;1.62
73685;BMP280;61985;51.070;14.064;2022-12-07T15:39:22;98104.72;;;1.59
73685;BMP280;61985;51.070;14.064;2022-12-07T15:41:48;98114.94;;;1.54
73685;BMP280;61985;51.070;14.064;2022-12-07T15:44:14;98123.28;;;1.52
73685;BMP280;61985;51.070;14.064;2022-12-07T15:46:58;98126.97;;;1.33
73685;BMP280;61985;51.070;14.064;2022-12-07T15:49:23;98122.34;;;1.23
73685;BMP280;61985;51.070;14.064;2022-12-07T15:51:49;98123.84;;;1.20
73685;BMP280;61985;51.070;14.064;2022-12-07T15:54:25;98121.91;;;1.14
73685;BMP280;61985;51.070;14.064;2022-12-07T15:56:52;98110.09;;;1.07
73685;BMP280;61985;51.070;14.064;2022-12-07T15:59:18;98119.19;;;1.06
73685;BMP280;61985;51.070;14.064;2022-12-07T16:01:43;98118.00;;;1.00
73685;BMP280;61985;51.070;14.064;2022-12-07T16:04:09;98120.69;;;1.04
73685;BMP280;61985;51.070;14.064;2022-12-07T16:06:35;98118.41;;;1.02
73685;BMP280;61985;51.070;14.064;2022-12-07T16:09:00;98107.78;;;1.02
73685;BMP280;61985;51.070;14.064;2022-12-07T16:11:26;98113.41;;;0.97
73685;BMP280;61985;51.070;14.064;2022-12-07T16:13:51;98113.03;;;0.95
73685;BMP280;61985;51.070;14.064;2022-12-07T16:16:18;98119.16;;;1.03
73685;BMP280;61985;51.070;14.064;2022-12-07T16:18:56;98117.59;;;0.98
73685;BMP280;61985;51.070;14.064;2022-12-07T16:21:22;98119.88;;;0.96
73685;BMP280;61985;51.070;14.064;2022-12-07T16:23:47;98115.69;;;0.99
73685;BMP280;61985;51.070;14.064;2022-12-07T16:26:18;98105.44;;;0.94
73685;BMP280;61985;51.070;14.064;2022-12-07T16:28:44;98108.81;;;0.90
73685;BMP280;61985;51.070;14.064;2022-12-07T16:31:12;98105.41;;;0.90
73685;BMP280;61985;51.070;14.064;2022-12-07T16:33:39;98115.28;;;0.93
73685;BMP280;61985;51.070;14.064;2022-12-07T16:36:06;98121.34;;;0.94
73685;BMP280;61985;51.070;14.064;2022-12-07T16:38:31;98108.44;;;0.88
73685;BMP280;61985;51.070;14.064;2022-12-07T16:40:57;98115.22;;;0.86
73685;BMP280;61985;51.070;14.064;2022-12-07T16:43:22;98109.09;;;0.82
73685;BMP280;61985;51.070;14.064;2022-12-07T16:45:48;98108.00;;;0.83
73685;BMP280;61985;51.070;14.064;2022-12-07T16:48:15;98108.03;;;0.86